sensor_id;sensor_type;location;lat;lon;timestamp;P1;durP1;ratioP1;P2;durP2;ratioP2
35743;SDS011;21867;52.012;4.324;2023-02-28T00:01:34;5.00;;;3.13;;
35743;SDS011;21867;52.012;4.324;2023-02-28T00:04:01;4.83;;;2.70;;
35743;SDS011;21867;52.012;4.324;2023-02-28T00:06:28;3.27;;;2.90;;
35743;SDS011;21867;52.012;4.324;2023-02-28T00:08:55;3.80;;;2.87;;
35743;SDS011;21867;52.012;4.324;2023-02-28T00:11:23;4.97;;;3.00;;
35743;SDS011;21867;52.012;4.324;2023-02-28T00:13:51;5.43;;;3.17;;
35743;SDS011;21867;52.012;4.324;2023-02-28T00:16:19;4.90;;;2.90;;
35743;SDS011;21867;52.012;4.324;2023-02-28T00:18:50;2.97;;;2.67;;
35743;SDS011;21867;52.012;4.324;2023-02-28T00:21:18;6.20;;;2.53;;
35743;SDS011;21867;52.012;4.324;2023-02-28T00:23:46;2.80;;;2.43;;
35743;SDS011;21867;52.012;4.324;2023-02-28T00:26:13;4.50;;;2.50;;
35743;SDS011;21867;52.012;4.324;2023-02-28T00:28:58;7.60;;;3.60;;
35743;SDS011;21867;52.012;4.324;2023-02-28T00:31:44;3.23;;;2.93;;
35743;SDS011;21867;52.012;4.324;2023-02-28T00:34:11;3.00;;;2.70;;
35743;SDS011;21867;52.012;4.324;2023-02-28T00:36:39;4.97;;;3.10;;
35743;SDS011;21867;52.012;4.324;2023-02-28T00:39:06;6.77;;;3.20;;
35743;SDS011;21867;52.012;4.324;2023-02-28T00:41:33;6.17;;;2.70;;
35743;SDS011;21867;52.012;4.324;2023-02-28T00:44:02;5.83;;;3.17;;
35743;SDS011;21867;52.012;4.324;2023-02-28T00:49:20;4.83;;;3.13;;
35743;SDS011;21867;52.012;4.324;2023-02-28T00:51:48;2.60;;;2.40;;
35743;SDS011;21867;52.012;4.324;2023-02-28T00:54:15;4.97;;;3.07;;
35743;SDS011;21867;52.012;4.324;2023-02-28T00:56:45;5.17;;;3.00;;
35743;SDS011;21867;52.012;4.324;2023-02-28T00:59:13;3.13;;;2.40;;
35743;SDS011;21867;52.012;4.324;2023-02-28T01:01:46;4.40;;;3.00;;
35743;SDS011;21867;52.012;4.324;2023-02-28T01:07:19;3.10;;;2.70;;
35743;SDS011;21867;52.012;4.324;2023-02-28T01:09:47;4.07;;;2.77;;
35743;SDS011;21867;52.012;4.324;2023-02-28T01:12:15;3.50;;;2.70;;
35743;SDS011;21867;52.012;4.324;2023-02-28T01:14:44;2.77;;;2.40;;
35743;SDS011;21867;52.012;4.324;2023-02-28T01:17:16;3.47;;;2.40;;
35743;SDS011;21867;52.012;4.324;2023-02-28T01:19:43;3.57;;;2.57;;
35743;SDS011;21867;52.012;4.324;2023-02-28T01:22:11;6.67;;;2.73;;
35743;SDS011;21867;52.012;4.324;2023-02-28T01:24:40;2.83;;;2.53;;
35743;SDS011;21867;52.012;4.324;2023-02-28T01:27:11;3.43;;;2.50;;
35743;SDS011;21867;52.012;4.324;2023-02-28T01:29:38;2.83;;;2.60;;
35743;SDS011;21867;52.012;4.324;2023-02-28T01:32:13;2.97;;;2.50;;
35743;SDS011;21867;52.012;4.324;2023-02-28T01:34:41;7.70;;;2.90;;
35743;SDS011;21867;52.012;4.324;2023-02-28T01:37:08;2.17;;;2.07;;
35743;SDS011;21867;52.012;4.324;2023-02-28T01:39:36;2.57;;;2.40;;
35743;SDS011;21867;52.012;4.324;2023-02-28T01:42:12;3.63;;;3.03;;
35743;SDS011;21867;52.012;4.324;2023-02-28T01:48:16;3.73;;;2.50;;
35743;SDS011;21867;52.012;4.324;2023-02-28T01:50:45;4.40;;;3.07;;
35743;SDS011;21867;52.012;4.324;2023-02-28T01:53:16;4.63;;;2.90;;
35743;SDS011;21867;52.012;4.324;2023-02-28T01:55:45;3.77;;;3.13;;
35743;SDS011;21867;52.012;4.324;2023-02-28T01:58:14;4.43;;;2.80;;
35743;SDS011;21867;52.012;4.324;2023-02-28T02:00:41;6.23;;;3.20;;
35743;SDS011;21867;52.012;4.324;2023-02-28T02:03:10;5.33;;;3.30;;
35743;SDS011;21867;52.012;4.324;2023-02-28T02:05:39;5.43;;;3.07;;
35743;SDS011;21867;52.012;4.324;2023-02-28T02:08:07;7.00;;;2.73;;
35743;SDS011;21867;52.012;4.324;2023-02-28T02:10:38;3.10;;;2.80;;
35743;SDS011;21867;52.012;4.324;2023-02-28T02:13:13;4.53;;;2.90;;
35743;SDS011;21867;52.012;4.324;2023-02-28T02:15:42;4.67;;;3.23;;
35743;SDS011;21867;52.012;4.324;2023-02-28T02:27:01;6.60;;;3.30;;
35743;SDS011;21867;52.012;4.324;2023-02-28T02:29:37;7.17;;;3.13;;
35743;SDS011;21867;52.012;4.324;2023-02-28T02:32:14;5.07;;;3.27;;
35743;SDS011;21867;52.012;4.324;2023-02-28T02:34:49;5.73;;;3.80;;
35743;SDS011;21867;52.012;4.324;2023-02-28T02:37:25;6.10;;;3.20;;
35743;SDS011;21867;52.012;4.324;2023-02-28T02:39:57;4.50;;;3.33;;
35743;SDS011;21867;52.012;4.324;2023-02-28T02:42:27;3.40;;;2.90;;
35743;SDS011;21867;52.012;4.324;2023-02-28T02:44:56;4.83;;;3.03;;
35743;SDS011;21867;52.012;4.324;2023-02-28T02:51:20;4.70;;;3.10;;
35743;SDS011;21867;52.012;4.324;2023-02-28T02:53:49;4.17;;;3.43;;
35743;SDS011;21867;52.012;4.324;2023-02-28T02:56:18;4.00;;;3.27;;
35743;SDS011;21867;52.012;4.324;2023-02-28T02:58:47;4.27;;;3.50;;
35743;SDS011;21867;52.012;4.324;2023-02-28T03:01:17;4.97;;;3.27;;
35743;SDS011;21867;52.012;4.324;2023-02-28T03:03:45;7.93;;;3.90;;
35743;SDS011;21867;52.012;4.324;2023-02-28T03:06:25;5.13;;;3.47;;
35743;SDS011;21867;52.012;4.324;2023-02-28T03:08:52;4.67;;;3.50;;
35743;SDS011;21867;52.012;4.324;2023-02-28T03:11:21;3.37;;;3.07;;
35743;SDS011;21867;52.012;4.324;2023-02-28T03:13:52;4.60;;;3.47;;
35743;SDS011;21867;52.012;4.324;2023-02-28T03:16:45;5.80;;;3.40;;
35743;SDS011;21867;52.012;4.324;2023-02-28T03:25:18;5.20;;;3.40;;
35743;SDS011;21867;52.012;4.324;2023-02-28T03:27:51;4.87;;;3.60;;
35743;SDS011;21867;52.012;4.324;2023-02-28T03:30:22;9.57;;;3.60;;
35743;SDS011;21867;52.012;4.324;2023-02-28T03:32:51;5.40;;;3.67;;
35743;SDS011;21867;52.012;4.324;2023-02-28T03:35:30;5.00;;;3.30;;
35743;SDS011;21867;52.012;4.324;2023-02-28T03:38:00;8.87;;;3.83;;
35743;SDS011;21867;52.012;4.324;2023-02-28T03:40:32;6.20;;;3.43;;
35743;SDS011;21867;52.012;4.324;2023-02-28T03:43:01;5.93;;;3.97;;
35743;SDS011;21867;52.012;4.324;2023-02-28T03:52:02;6.73;;;3.60;;
35743;SDS011;21867;52.012;4.324;2023-02-28T03:54:30;4.77;;;3.60;;
35743;SDS011;21867;52.012;4.324;2023-02-28T03:57:02;7.50;;;3.83;;
35743;SDS011;21867;52.012;4.324;2023-02-28T03:59:32;6.00;;;4.03;;
35743;SDS011;21867;52.012;4.324;2023-02-28T04:02:02;5.87;;;4.10;;
35743;SDS011;21867;52.012;4.324;2023-02-28T04:07:22;6.10;;;3.70;;
35743;SDS011;21867;52.012;4.324;2023-02-28T04:09:50;6.27;;;4.10;;
35743;SDS011;21867;52.012;4.324;2023-02-28T04:12:18;4.10;;;3.50;;
35743;SDS011;21867;52.012;4.324;2023-02-28T04:14:46;4.00;;;3.63;;
35743;SDS011;21867;52.012;4.324;2023-02-28T04:23:48;7.40;;;3.87;;
35743;SDS011;21867;52.012;4.324;2023-02-28T04:26:15;10.00;;;4.40;;
35743;SDS011;21867;52.012;4.324;2023-02-28T04:28:44;3.90;;;3.60;;
35743;SDS011;21867;52.012;4.324;2023-02-28T04:31:11;7.40;;;4.93;;
35743;SDS011;21867;52.012;4.324;2023-02-28T04:33:38;4.77;;;4.00;;
35743;SDS011;21867;52.012;4.324;2023-02-28T04:36:21;7.00;;;4.60;;
35743;SDS011;21867;52.012;4.324;2023-02-28T04:38:48;6.20;;;4.20;;
35743;SDS011;21867;52.012;4.324;2023-02-28T04:41:16;5.13;;;3.50;;
35743;SDS011;21867;52.012;4.324;2023-02-28T04:43:45;4.27;;;3.67;;
35743;SDS011;21867;52.012;4.324;2023-02-28T04:50:00;7.80;;;4.73;;
35743;SDS011;21867;52.012;4.324;2023-02-28T04:52:27;5.30;;;3.87;;
35743;SDS011;21867;52.012;4.324;2023-02-28T04:54:54;8.13;;;5.17;;
35743;SDS011;21867;52.012;4.324;2023-02-28T04:57:22;8.50;;;4.43;;
35743;SDS011;21867;52.012;4.324;2023-02-28T04:59:50;7.03;;;3.97;;
35743;SDS011;21867;52.012;4.324;2023-02-28T05:02:18;4.47;;;4.00;;
35743;SDS011;21867;52.012;4.324;2023-02-28T05:07:38;5.27;;;4.50;;
35743;SDS011;21867;52.012;4.324;2023-02-28T05:10:05;7.83;;;4.67;;
35743;SDS011;21867;52.012;4.324;2023-02-28T05:12:32;7.00;;;4.40;;
35743;SDS011;21867;52.012;4.324;2023-02-28T05:20:51;7.30;;;4.70;;
35743;SDS011;21867;52.012;4.324;2023-02-28T05:23:33;6.50;;;4.83;;
35743;SDS011;21867;52.012;4.324;2023-02-28T05:26:01;7.07;;;4.97;;
35743;SDS011;21867;52.012;4.324;2023-02-28T05:28:28;4.83;;;4.40;;
35743;SDS011;21867;52.012;4.324;2023-02-28T05:30:55;6.37;;;4.90;;
35743;SDS011;21867;52.012;4.324;2023-02-28T05:36:14;6.10;;;4.27;;
35743;SDS011;21867;52.012;4.324;2023-02-28T05:38:41;6.57;;;4.77;;
35743;SDS011;21867;52.012;4.324;2023-02-28T05:41:09;5.03;;;4.47;;
35743;SDS011;21867;52.012;4.324;2023-02-28T05:43:45;5.53;;;5.00;;
35743;SDS011;21867;52.012;4.324;2023-02-28T05:50:12;5.37;;;4.50;;
35743;SDS011;21867;52.012;4.324;2023-02-28T05:52:41;7.07;;;5.37;;
35743;SDS011;21867;52.012;4.324;2023-02-28T05:55:08;7.70;;;5.60;;
35743;SDS011;21867;52.012;4.324;2023-02-28T05:57:36;6.20;;;5.00;;
35743;SDS011;21867;52.012;4.324;2023-02-28T06:00:03;6.37;;;4.67;;
35743;SDS011;21867;52.012;4.324;2023-02-28T06:05:24;7.37;;;6.07;;
35743;SDS011;21867;52.012;4.324;2023-02-28T06:07:52;6.80;;;5.20;;
35743;SDS011;21867;52.012;4.324;2023-02-28T06:10:20;7.37;;;5.33;;
35743;SDS011;21867;52.012;4.324;2023-02-28T06:12:47;5.70;;;5.10;;
35743;SDS011;21867;52.012;4.324;2023-02-28T06:15:30;7.00;;;5.73;;
35743;SDS011;21867;52.012;4.324;2023-02-28T06:21:01;8.50;;;5.63;;
35743;SDS011;21867;52.012;4.324;2023-02-28T06:23:30;8.93;;;6.07;;
35743;SDS011;21867;52.012;4.324;2023-02-28T06:25:57;7.67;;;5.50;;
35743;SDS011;21867;52.012;4.324;2023-02-28T06:28:25;6.30;;;5.43;;
35743;SDS011;21867;52.012;4.324;2023-02-28T06:30:52;8.00;;;5.23;;
35743;SDS011;21867;52.012;4.324;2023-02-28T06:33:35;7.10;;;5.77;;
35743;SDS011;21867;52.012;4.324;2023-02-28T06:36:02;7.90;;;5.63;;
35743;SDS011;21867;52.012;4.324;2023-02-28T06:38:31;6.40;;;5.80;;
35743;SDS011;21867;52.012;4.324;2023-02-28T06:41:00;9.60;;;5.47;;
35743;SDS011;21867;52.012;4.324;2023-02-28T06:50:31;7.27;;;5.20;;
35743;SDS011;21867;52.012;4.324;2023-02-28T06:52:59;9.47;;;6.10;;
35743;SDS011;21867;52.012;4.324;2023-02-28T06:55:28;6.93;;;5.47;;
35743;SDS011;21867;52.012;4.324;2023-02-28T06:57:56;6.77;;;5.77;;
35743;SDS011;21867;52.012;4.324;2023-02-28T07:00:24;9.50;;;5.43;;
35743;SDS011;21867;52.012;4.324;2023-02-28T07:02:52;6.07;;;5.43;;
35743;SDS011;21867;52.012;4.324;2023-02-28T07:05:19;7.17;;;5.87;;
35743;SDS011;21867;52.012;4.324;2023-02-28T07:07:47;5.87;;;5.27;;
35743;SDS011;21867;52.012;4.324;2023-02-28T07:10:14;6.07;;;5.17;;
35743;SDS011;21867;52.012;4.324;2023-02-28T07:12:44;5.40;;;4.90;;
35743;SDS011;21867;52.012;4.324;2023-02-28T07:15:12;6.67;;;4.93;;
35743;SDS011;21867;52.012;4.324;2023-02-28T07:17:39;4.90;;;4.37;;
35743;SDS011;21867;52.012;4.324;2023-02-28T07:20:07;5.00;;;4.50;;
35743;SDS011;21867;52.012;4.324;2023-02-28T07:22:34;5.20;;;4.70;;
35743;SDS011;21867;52.012;4.324;2023-02-28T07:25:01;6.30;;;4.20;;
35743;SDS011;21867;52.012;4.324;2023-02-28T07:27:29;5.30;;;4.20;;
35743;SDS011;21867;52.012;4.324;2023-02-28T07:29:58;4.80;;;3.97;;
35743;SDS011;21867;52.012;4.324;2023-02-28T07:32:25;6.90;;;4.00;;
35743;SDS011;21867;52.012;4.324;2023-02-28T07:34:53;4.27;;;3.93;;
35743;SDS011;21867;52.012;4.324;2023-02-28T07:37:20;7.60;;;4.10;;
35743;SDS011;21867;52.012;4.324;2023-02-28T07:39:47;5.53;;;3.57;;
35743;SDS011;21867;52.012;4.324;2023-02-28T07:42:15;6.53;;;2.57;;
35743;SDS011;21867;52.012;4.324;2023-02-28T07:44:43;4.60;;;4.20;;
35743;SDS011;21867;52.012;4.324;2023-02-28T07:47:11;3.50;;;3.23;;
35743;SDS011;21867;52.012;4.324;2023-02-28T07:49:39;4.17;;;3.60;;
35743;SDS011;21867;52.012;4.324;2023-02-28T07:52:06;3.70;;;2.90;;
35743;SDS011;21867;52.012;4.324;2023-02-28T07:54:36;4.20;;;3.80;;
35743;SDS011;21867;52.012;4.324;2023-02-28T07:57:03;5.70;;;3.90;;
35743;SDS011;21867;52.012;4.324;2023-02-28T07:59:30;4.27;;;3.70;;
35743;SDS011;21867;52.012;4.324;2023-02-28T08:01:57;4.30;;;3.90;;
35743;SDS011;21867;52.012;4.324;2023-02-28T08:04:26;4.03;;;3.60;;
35743;SDS011;21867;52.012;4.324;2023-02-28T08:06:53;5.50;;;4.03;;
35743;SDS011;21867;52.012;4.324;2023-02-28T08:09:21;4.87;;;3.70;;
35743;SDS011;21867;52.012;4.324;2023-02-28T08:11:48;4.00;;;3.60;;
35743;SDS011;21867;52.012;4.324;2023-02-28T08:14:15;3.83;;;3.50;;
35743;SDS011;21867;52.012;4.324;2023-02-28T08:16:43;5.33;;;3.90;;
35743;SDS011;21867;52.012;4.324;2023-02-28T08:19:10;3.50;;;3.20;;
35743;SDS011;21867;52.012;4.324;2023-02-28T08:21:39;3.83;;;3.43;;
35743;SDS011;21867;52.012;4.324;2023-02-28T08:24:07;3.73;;;3.43;;
35743;SDS011;21867;52.012;4.324;2023-02-28T08:26:34;3.80;;;3.50;;
35743;SDS011;21867;52.012;4.324;2023-02-28T08:29:02;4.43;;;3.63;;
35743;SDS011;21867;52.012;4.324;2023-02-28T08:31:29;4.40;;;4.00;;
35743;SDS011;21867;52.012;4.324;2023-02-28T08:40:21;3.77;;;3.47;;
35743;SDS011;21867;52.012;4.324;2023-02-28T08:42:48;3.83;;;3.53;;
35743;SDS011;21867;52.012;4.324;2023-02-28T08:45:16;3.93;;;3.60;;
35743;SDS011;21867;52.012;4.324;2023-02-28T08:47:43;4.70;;;3.77;;
35743;SDS011;21867;52.012;4.324;2023-02-28T08:50:10;4.13;;;3.63;;
35743;SDS011;21867;52.012;4.324;2023-02-28T08:52:37;3.73;;;3.43;;
35743;SDS011;21867;52.012;4.324;2023-02-28T08:55:05;4.10;;;3.80;;
35743;SDS011;21867;52.012;4.324;2023-02-28T08:57:34;4.37;;;4.07;;
35743;SDS011;21867;52.012;4.324;2023-02-28T09:00:02;3.83;;;3.53;;
35743;SDS011;21867;52.012;4.324;2023-02-28T09:02:29;3.67;;;3.30;;
35743;SDS011;21867;52.012;4.324;2023-02-28T09:04:57;4.17;;;3.77;;
35743;SDS011;21867;52.012;4.324;2023-02-28T09:10:16;3.10;;;2.90;;
35743;SDS011;21867;52.012;4.324;2023-02-28T09:12:45;3.80;;;3.30;;
35743;SDS011;21867;52.012;4.324;2023-02-28T09:15:12;7.13;;;4.20;;
35743;SDS011;21867;52.012;4.324;2023-02-28T09:17:40;4.30;;;3.60;;
35743;SDS011;21867;52.012;4.324;2023-02-28T09:20:10;3.83;;;3.30;;
35743;SDS011;21867;52.012;4.324;2023-02-28T09:22:37;4.23;;;3.90;;
35743;SDS011;21867;52.012;4.324;2023-02-28T09:31:27;4.47;;;4.03;;
35743;SDS011;21867;52.012;4.324;2023-02-28T09:33:55;4.00;;;3.60;;
35743;SDS011;21867;52.012;4.324;2023-02-28T09:36:23;3.53;;;3.23;;
35743;SDS011;21867;52.012;4.324;2023-02-28T09:39:07;4.20;;;3.63;;
35743;SDS011;21867;52.012;4.324;2023-02-28T09:41:36;4.50;;;4.10;;
35743;SDS011;21867;52.012;4.324;2023-02-28T09:44:04;4.27;;;3.67;;
35743;SDS011;21867;52.012;4.324;2023-02-28T09:46:34;4.83;;;3.77;;
35743;SDS011;21867;52.012;4.324;2023-02-28T09:49:05;5.27;;;3.53;;
35743;SDS011;21867;52.012;4.324;2023-02-28T09:51:41;4.40;;;4.00;;
35743;SDS011;21867;52.012;4.324;2023-02-28T09:57:32;4.30;;;3.50;;
35743;SDS011;21867;52.012;4.324;2023-02-28T10:00:05;4.63;;;3.50;;
35743;SDS011;21867;52.012;4.324;2023-02-28T10:02:45;3.20;;;2.93;;
35743;SDS011;21867;52.012;4.324;2023-02-28T10:05:13;4.20;;;3.00;;
35743;SDS011;21867;52.012;4.324;2023-02-28T10:07:46;3.20;;;2.90;;
35743;SDS011;21867;52.012;4.324;2023-02-28T10:10:18;4.03;;;3.70;;
35743;SDS011;21867;52.012;4.324;2023-02-28T10:12:46;3.43;;;3.13;;
35743;SDS011;21867;52.012;4.324;2023-02-28T10:15:14;3.33;;;3.00;;
35743;SDS011;21867;52.012;4.324;2023-02-28T10:17:44;3.00;;;2.80;;
35743;SDS011;21867;52.012;4.324;2023-02-28T10:20:35;3.80;;;2.93;;
35743;SDS011;21867;52.012;4.324;2023-02-28T10:29:26;3.30;;;3.07;;
35743;SDS011;21867;52.012;4.324;2023-02-28T10:31:53;3.77;;;3.33;;
35743;SDS011;21867;52.012;4.324;2023-02-28T10:34:22;3.13;;;2.83;;
35743;SDS011;21867;52.012;4.324;2023-02-28T10:36:51;4.37;;;3.00;;
35743;SDS011;21867;52.012;4.324;2023-02-28T10:39:33;3.10;;;2.80;;
35743;SDS011;21867;52.012;4.324;2023-02-28T10:42:01;3.50;;;3.20;;
35743;SDS011;21867;52.012;4.324;2023-02-28T10:44:28;3.73;;;3.13;;
35743;SDS011;21867;52.012;4.324;2023-02-28T10:46:55;3.27;;;2.97;;
35743;SDS011;21867;52.012;4.324;2023-02-28T10:49:25;3.47;;;3.17;;
35743;SDS011;21867;52.012;4.324;2023-02-28T10:51:54;3.73;;;3.43;;
35743;SDS011;21867;52.012;4.324;2023-02-28T10:54:23;4.73;;;3.10;;
35743;SDS011;21867;52.012;4.324;2023-02-28T10:57:15;4.03;;;2.70;;
35743;SDS011;21867;52.012;4.324;2023-02-28T10:59:42;5.97;;;3.13;;
35743;SDS011;21867;52.012;4.324;2023-02-28T11:02:29;3.93;;;2.90;;
35743;SDS011;21867;52.012;4.324;2023-02-28T11:04:58;6.90;;;3.13;;
35743;SDS011;21867;52.012;4.324;2023-02-28T11:07:26;2.87;;;2.67;;
35743;SDS011;21867;52.012;4.324;2023-02-28T11:10:06;3.50;;;3.20;;
35743;SDS011;21867;52.012;4.324;2023-02-28T11:12:36;2.67;;;2.43;;
35743;SDS011;21867;52.012;4.324;2023-02-28T11:15:21;3.33;;;3.03;;
35743;SDS011;21867;52.012;4.324;2023-02-28T11:17:53;3.60;;;3.03;;
35743;SDS011;21867;52.012;4.324;2023-02-28T11:20:23;6.37;;;3.53;;
35743;SDS011;21867;52.012;4.324;2023-02-28T11:22:51;17.70;;;4.40;;
35743;SDS011;21867;52.012;4.324;2023-02-28T11:25:19;5.67;;;3.20;;
35743;SDS011;21867;52.012;4.324;2023-02-28T11:27:49;3.53;;;3.20;;
35743;SDS011;21867;52.012;4.324;2023-02-28T11:30:24;5.40;;;3.03;;
35743;SDS011;21867;52.012;4.324;2023-02-28T11:32:52;3.03;;;2.73;;
35743;SDS011;21867;52.012;4.324;2023-02-28T11:35:21;2.80;;;2.60;;
35743;SDS011;21867;52.012;4.324;2023-02-28T11:37:52;3.23;;;3.03;;
35743;SDS011;21867;52.012;4.324;2023-02-28T11:40:22;2.77;;;2.50;;
35743;SDS011;21867;52.012;4.324;2023-02-28T11:42:54;2.70;;;2.50;;
35743;SDS011;21867;52.012;4.324;2023-02-28T11:45:24;3.03;;;2.83;;
35743;SDS011;21867;52.012;4.324;2023-02-28T11:47:56;11.87;;;4.30;;
35743;SDS011;21867;52.012;4.324;2023-02-28T11:50:31;5.27;;;2.50;;
35743;SDS011;21867;52.012;4.324;2023-02-28T11:53:05;3.10;;;2.77;;
35743;SDS011;21867;52.012;4.324;2023-02-28T11:55:38;18.90;;;5.47;;
35743;SDS011;21867;52.012;4.324;2023-02-28T11:58:13;3.73;;;2.90;;
35743;SDS011;21867;52.012;4.324;2023-02-28T12:00:45;3.30;;;2.50;;
35743;SDS011;21867;52.012;4.324;2023-02-28T12:03:23;15.90;;;4.13;;
35743;SDS011;21867;52.012;4.324;2023-02-28T12:05:54;3.10;;;2.80;;
35743;SDS011;21867;52.012;4.324;2023-02-28T12:08:30;12.00;;;5.23;;
35743;SDS011;21867;52.012;4.324;2023-02-28T12:11:03;4.97;;;3.07;;
35743;SDS011;21867;52.012;4.324;2023-02-28T12:13:36;11.63;;;4.30;;
35743;SDS011;21867;52.012;4.324;2023-02-28T12:18:58;3.20;;;2.97;;
35743;SDS011;21867;52.012;4.324;2023-02-28T12:21:30;5.70;;;2.27;;
35743;SDS011;21867;52.012;4.324;2023-02-28T12:26:45;2.50;;;2.30;;
35743;SDS011;21867;52.012;4.324;2023-02-28T12:29:15;2.50;;;2.30;;
35743;SDS011;21867;52.012;4.324;2023-02-28T12:31:45;2.43;;;2.23;;
35743;SDS011;21867;52.012;4.324;2023-02-28T12:34:15;2.40;;;2.20;;
35743;SDS011;21867;52.012;4.324;2023-02-28T12:36:43;3.13;;;2.60;;
35743;SDS011;21867;52.012;4.324;2023-02-28T12:39:11;3.10;;;2.57;;
35743;SDS011;21867;52.012;4.324;2023-02-28T12:41:41;3.10;;;2.80;;
35743;SDS011;21867;52.012;4.324;2023-02-28T12:44:11;5.73;;;3.03;;
35743;SDS011;21867;52.012;4.324;2023-02-28T12:46:41;3.00;;;2.57;;
35743;SDS011;21867;52.012;4.324;2023-02-28T12:49:10;2.53;;;2.20;;
35743;SDS011;21867;52.012;4.324;2023-02-28T12:51:40;3.40;;;2.30;;
35743;SDS011;21867;52.012;4.324;2023-02-28T12:54:10;3.07;;;2.80;;
35743;SDS011;21867;52.012;4.324;2023-02-28T12:56:42;2.83;;;2.50;;
35743;SDS011;21867;52.012;4.324;2023-02-28T12:59:14;5.00;;;2.77;;
35743;SDS011;21867;52.012;4.324;2023-02-28T13:01:47;3.23;;;2.73;;
35743;SDS011;21867;52.012;4.324;2023-02-28T13:04:25;1.97;;;1.87;;
35743;SDS011;21867;52.012;4.324;2023-02-28T13:07:02;4.43;;;2.93;;
35743;SDS011;21867;52.012;4.324;2023-02-28T13:09:32;2.73;;;2.50;;
35743;SDS011;21867;52.012;4.324;2023-02-28T13:11:59;4.07;;;3.10;;
35743;SDS011;21867;52.012;4.324;2023-02-28T13:14:29;6.77;;;3.00;;
35743;SDS011;21867;52.012;4.324;2023-02-28T13:16:58;3.97;;;2.77;;
35743;SDS011;21867;52.012;4.324;2023-02-28T13:19:27;2.40;;;2.30;;
35743;SDS011;21867;52.012;4.324;2023-02-28T13:21:55;3.20;;;2.70;;
35743;SDS011;21867;52.012;4.324;2023-02-28T13:24:36;5.03;;;2.97;;
35743;SDS011;21867;52.012;4.324;2023-02-28T13:30:01;2.87;;;2.13;;
35743;SDS011;21867;52.012;4.324;2023-02-28T13:32:35;2.57;;;2.37;;
35743;SDS011;21867;52.012;4.324;2023-02-28T13:35:13;3.47;;;2.80;;
35743;SDS011;21867;52.012;4.324;2023-02-28T13:37:44;6.57;;;2.93;;
35743;SDS011;21867;52.012;4.324;2023-02-28T13:40:28;4.90;;;2.60;;
35743;SDS011;21867;52.012;4.324;2023-02-28T13:49:52;2.50;;;2.30;;
35743;SDS011;21867;52.012;4.324;2023-02-28T13:52:21;3.90;;;2.60;;
35743;SDS011;21867;52.012;4.324;2023-02-28T13:55:01;3.50;;;2.53;;
35743;SDS011;21867;52.012;4.324;2023-02-28T13:57:35;4.20;;;2.83;;
35743;SDS011;21867;52.012;4.324;2023-02-28T14:00:13;2.60;;;2.40;;
35743;SDS011;21867;52.012;4.324;2023-02-28T14:02:56;4.67;;;2.57;;
35743;SDS011;21867;52.012;4.324;2023-02-28T14:05:29;6.47;;;2.30;;
35743;SDS011;21867;52.012;4.324;2023-02-28T14:07:58;5.20;;;2.33;;
35743;SDS011;21867;52.012;4.324;2023-02-28T14:10:26;3.03;;;2.80;;
35743;SDS011;21867;52.012;4.324;2023-02-28T14:12:56;4.67;;;2.10;;
35743;SDS011;21867;52.012;4.324;2023-02-28T14:18:13;2.60;;;2.40;;
35743;SDS011;21867;52.012;4.324;2023-02-28T14:20:43;2.67;;;2.47;;
35743;SDS011;21867;52.012;4.324;2023-02-28T14:23:12;3.77;;;3.40;;
35743;SDS011;21867;52.012;4.324;2023-02-28T14:25:44;3.97;;;2.73;;
35743;SDS011;21867;52.012;4.324;2023-02-28T14:28:17;5.37;;;2.70;;
35743;SDS011;21867;52.012;4.324;2023-02-28T14:33:57;3.40;;;3.17;;
35743;SDS011;21867;52.012;4.324;2023-02-28T14:36:30;3.00;;;2.60;;
35743;SDS011;21867;52.012;4.324;2023-02-28T14:38:59;5.33;;;3.60;;
35743;SDS011;21867;52.012;4.324;2023-02-28T14:41:29;5.40;;;2.77;;
35743;SDS011;21867;52.012;4.324;2023-02-28T14:43:57;2.93;;;2.73;;
35743;SDS011;21867;52.012;4.324;2023-02-28T14:46:34;3.57;;;2.53;;
35743;SDS011;21867;52.012;4.324;2023-02-28T14:52:13;5.97;;;3.40;;
35743;SDS011;21867;52.012;4.324;2023-02-28T14:54:42;4.37;;;2.70;;
35743;SDS011;21867;52.012;4.324;2023-02-28T14:57:20;2.40;;;2.30;;
35743;SDS011;21867;52.012;4.324;2023-02-28T14:59:56;4.00;;;3.00;;
35743;SDS011;21867;52.012;4.324;2023-02-28T15:02:24;5.57;;;2.97;;
35743;SDS011;21867;52.012;4.324;2023-02-28T15:04:52;3.10;;;2.83;;
35743;SDS011;21867;52.012;4.324;2023-02-28T15:07:22;2.63;;;2.43;;
35743;SDS011;21867;52.012;4.324;2023-02-28T15:09:50;3.07;;;2.40;;
35743;SDS011;21867;52.012;4.324;2023-02-28T15:12:33;6.30;;;2.90;;
35743;SDS011;21867;52.012;4.324;2023-02-28T15:15:01;4.63;;;3.00;;
35743;SDS011;21867;52.012;4.324;2023-02-28T15:17:28;2.73;;;2.50;;
35743;SDS011;21867;52.012;4.324;2023-02-28T15:19:56;2.90;;;2.63;;
35743;SDS011;21867;52.012;4.324;2023-02-28T15:22:27;2.80;;;2.60;;
35743;SDS011;21867;52.012;4.324;2023-02-28T15:24:55;5.23;;;2.70;;
35743;SDS011;21867;52.012;4.324;2023-02-28T15:27:23;4.63;;;2.60;;
35743;SDS011;21867;52.012;4.324;2023-02-28T15:29:53;4.00;;;2.87;;
35743;SDS011;21867;52.012;4.324;2023-02-28T15:32:24;4.33;;;2.83;;
35743;SDS011;21867;52.012;4.324;2023-02-28T15:34:52;11.07;;;3.00;;
35743;SDS011;21867;52.012;4.324;2023-02-28T15:37:37;3.47;;;2.10;;
35743;SDS011;21867;52.012;4.324;2023-02-28T15:40:10;2.63;;;2.43;;
35743;SDS011;21867;52.012;4.324;2023-02-28T15:42:38;3.93;;;2.83;;
35743;SDS011;21867;52.012;4.324;2023-02-28T15:45:25;3.03;;;2.80;;
35743;SDS011;21867;52.012;4.324;2023-02-28T15:47:53;2.70;;;2.47;;
35743;SDS011;21867;52.012;4.324;2023-02-28T15:50:27;2.83;;;2.20;;
35743;SDS011;21867;52.012;4.324;2023-02-28T15:52:58;5.30;;;2.73;;
35743;SDS011;21867;52.012;4.324;2023-02-28T15:55:27;2.70;;;2.50;;
35743;SDS011;21867;52.012;4.324;2023-02-28T15:57:55;4.87;;;3.10;;
35743;SDS011;21867;52.012;4.324;2023-02-28T16:00:24;4.13;;;2.77;;
35743;SDS011;21867;52.012;4.324;2023-02-28T16:02:52;4.77;;;2.80;;
35743;SDS011;21867;52.012;4.324;2023-02-28T16:05:21;7.77;;;2.57;;
35743;SDS011;21867;52.012;4.324;2023-02-28T16:07:49;4.83;;;2.20;;
35743;SDS011;21867;52.012;4.324;2023-02-28T16:10:18;2.90;;;2.60;;
35743;SDS011;21867;52.012;4.324;2023-02-28T16:12:45;6.13;;;2.80;;
35743;SDS011;21867;52.012;4.324;2023-02-28T16:15:17;4.67;;;2.47;;
35743;SDS011;21867;52.012;4.324;2023-02-28T16:17:45;3.40;;;2.57;;
35743;SDS011;21867;52.012;4.324;2023-02-28T16:20:13;5.53;;;2.80;;
35743;SDS011;21867;52.012;4.324;2023-02-28T16:22:41;2.87;;;2.20;;
35743;SDS011;21867;52.012;4.324;2023-02-28T16:25:11;2.43;;;2.20;;
35743;SDS011;21867;52.012;4.324;2023-02-28T16:27:39;4.23;;;2.80;;
35743;SDS011;21867;52.012;4.324;2023-02-28T16:30:09;3.53;;;2.23;;
35743;SDS011;21867;52.012;4.324;2023-02-28T16:32:42;4.07;;;2.57;;
35743;SDS011;21867;52.012;4.324;2023-02-28T16:35:09;4.27;;;2.50;;
35743;SDS011;21867;52.012;4.324;2023-02-28T16:37:37;3.40;;;2.93;;
35743;SDS011;21867;52.012;4.324;2023-02-28T16:40:04;2.40;;;2.20;;
35743;SDS011;21867;52.012;4.324;2023-02-28T16:42:32;6.63;;;3.00;;
35743;SDS011;21867;52.012;4.324;2023-02-28T16:45:00;4.33;;;2.97;;
35743;SDS011;21867;52.012;4.324;2023-02-28T16:47:28;5.30;;;2.90;;
35743;SDS011;21867;52.012;4.324;2023-02-28T16:49:55;2.63;;;2.43;;
35743;SDS011;21867;52.012;4.324;2023-02-28T16:52:22;3.00;;;2.80;;
35743;SDS011;21867;52.012;4.324;2023-02-28T16:54:50;2.47;;;2.27;;
35743;SDS011;21867;52.012;4.324;2023-02-28T16:57:18;3.37;;;2.73;;
35743;SDS011;21867;52.012;4.324;2023-02-28T16:59:47;3.33;;;2.83;;
35743;SDS011;21867;52.012;4.324;2023-02-28T17:02:17;2.80;;;2.60;;
35743;SDS011;21867;52.012;4.324;2023-02-28T17:04:45;4.03;;;2.67;;
35743;SDS011;21867;52.012;4.324;2023-02-28T17:07:13;4.53;;;2.93;;
35743;SDS011;21867;52.012;4.324;2023-02-28T17:09:41;3.00;;;2.80;;
35743;SDS011;21867;52.012;4.324;2023-02-28T17:12:11;3.33;;;2.50;;